sensor_id;sensor_type;location;lat;lon;timestamp;temperature;humidity
50162;DHT22;36061;48.116;11.612;2023-05-07T00:00:07;13.90;99.90
50162;DHT22;36061;48.116;11.612;2023-05-07T00:02:34;13.90;99.90
50162;DHT22;36061;48.116;11.612;2023-05-07T00:05:03;13.90;99.90
50162;DHT22;36061;48.116;11.612;2023-05-07T00:07:31;13.80;99.90
50162;DHT22;36061;48.116;11.612;2023-05-07T00:09:58;13.80;99.90
50162;DHT22;36061;48.116;11.612;2023-05-07T00:12:25;13.80;99.90
50162;DHT22;36061;48.116;11.612;2023-05-07T00:14:54;13.80;99.90
50162;DHT22;36061;48.116;11.612;2023-05-07T00:17:21;13.80;99.90
50162;DHT22;36061;48.116;11.612;2023-05-07T00:19:48;13.80;99.90
50162;DHT22;36061;48.116;11.612;2023-05-07T00:22:15;13.70;99.90
50162;DHT22;36061;48.116;11.612;2023-05-07T00:24:43;13.70;99.90
50162;DHT22;36061;48.116;11.612;2023-05-07T00:27:10;13.70;99.90
50162;DHT22;36061;48.116;11.612;2023-05-07T00:29:37;13.70;99.90
50162;DHT22;36061;48.116;11.612;2023-05-07T00:32:06;13.70;99.90
50162;DHT22;36061;48.116;11.612;2023-05-07T00:34:33;13.70;99.90
50162;DHT22;36061;48.116;11.612;2023-05-07T00:37:01;13.60;99.90
50162;DHT22;36061;48.116;11.612;2023-05-07T00:39:28;13.60;99.90
50162;DHT22;36061;48.116;11.612;2023-05-07T00:41:58;13.60;99.90
50162;DHT22;36061;48.116;11.612;2023-05-07T00:44:26;13.60;99.90
50162;DHT22;36061;48.116;11.612;2023-05-07T00:46:54;13.60;99.90
50162;DHT22;36061;48.116;11.612;2023-05-07T00:49:25;13.60;99.90
50162;DHT22;36061;48.116;11.612;2023-05-07T00:51:54;13.60;99.90
50162;DHT22;36061;48.116;11.612;2023-05-07T00:54:22;13.60;99.90
50162;DHT22;36061;48.116;11.612;2023-05-07T00:56:49;13.60;99.90
50162;DHT22;36061;48.116;11.612;2023-05-07T00:59:17;13.50;99.90
50162;DHT22;36061;48.116;11.612;2023-05-07T01:01:44;13.50;99.90
50162;DHT22;36061;48.116;11.612;2023-05-07T01:04:12;13.50;99.90
50162;DHT22;36061;48.116;11.612;2023-05-07T01:06:40;13.50;99.90
50162;DHT22;36061;48.116;11.612;2023-05-07T01:09:08;13.50;99.90
50162;DHT22;36061;48.116;11.612;2023-05-07T01:11:35;13.50;99.90
50162;DHT22;36061;48.116;11.612;2023-05-07T01:14:03;13.40;99.90
50162;DHT22;36061;48.116;11.612;2023-05-07T01:16:31;13.40;99.90
50162;DHT22;36061;48.116;11.612;2023-05-07T01:18:58;13.40;99.90
50162;DHT22;36061;48.116;11.612;2023-05-07T01:21:26;13.40;99.90
50162;DHT22;36061;48.116;11.612;2023-05-07T01:23:59;13.40;99.90
50162;DHT22;36061;48.116;11.612;2023-05-07T01:26:27;13.40;99.90
50162;DHT22;36061;48.116;11.612;2023-05-07T01:28:55;13.40;99.90
50162;DHT22;36061;48.116;11.612;2023-05-07T01:31:23;13.40;99.90
50162;DHT22;36061;48.116;11.612;2023-05-07T01:33:52;13.40;99.90
50162;DHT22;36061;48.116;11.612;2023-05-07T01:36:20;13.40;99.90
50162;DHT22;36061;48.116;11.612;2023-05-07T01:38:51;13.40;99.90
50162;DHT22;36061;48.116;11.612;2023-05-07T01:41:21;13.40;99.90
50162;DHT22;36061;48.116;11.612;2023-05-07T01:43:49;13.40;99.90
50162;DHT22;36061;48.116;11.612;2023-05-07T01:46:18;13.30;99.90
50162;DHT22;36061;48.116;11.612;2023-05-07T01:48:46;13.30;99.90
50162;DHT22;36061;48.116;11.612;2023-05-07T01:51:13;13.30;99.90
50162;DHT22;36061;48.116;11.612;2023-05-07T01:53:40;13.30;99.90
50162;DHT22;36061;48.116;11.612;2023-05-07T01:56:09;13.30;99.90
50162;DHT22;36061;48.116;11.612;2023-05-07T01:58:39;13.30;99.90
50162;DHT22;36061;48.116;11.612;2023-05-07T02:01:07;13.30;99.90
50162;DHT22;36061;48.116;11.612;2023-05-07T02:03:35;13.30;99.90
50162;DHT22;36061;48.116;11.612;2023-05-07T02:06:09;13.30;99.90
50162;DHT22;36061;48.116;11.612;2023-05-07T02:08:38;13.30;99.90
50162;DHT22;36061;48.116;11.612;2023-05-07T02:11:06;13.30;99.90
50162;DHT22;36061;48.116;11.612;2023-05-07T02:13:34;13.20;99.90
50162;DHT22;36061;48.116;11.612;2023-05-07T02:16:04;13.20;99.90
50162;DHT22;36061;48.116;11.612;2023-05-07T02:18:31;13.20;99.90
50162;DHT22;36061;48.116;11.612;2023-05-07T02:20:59;13.20;99.90
50162;DHT22;36061;48.116;11.612;2023-05-07T02:23:26;13.20;99.90
50162;DHT22;36061;48.116;11.612;2023-05-07T02:25:53;13.10;99.90
50162;DHT22;36061;48.116;11.612;2023-05-07T02:28:21;13.10;99.90
50162;DHT22;36061;48.116;11.612;2023-05-07T02:30:58;13.00;99.90
50162;DHT22;36061;48.116;11.612;2023-05-07T02:33:28;13.00;99.90
50162;DHT22;36061;48.116;11.612;2023-05-07T02:35:57;13.00;99.90
50162;DHT22;36061;48.116;11.612;2023-05-07T02:38:24;13.00;99.90
50162;DHT22;36061;48.116;11.612;2023-05-07T02:40:51;13.00;99.90
50162;DHT22;36061;48.116;11.612;2023-05-07T02:43:18;13.00;99.90
50162;DHT22;36061;48.116;11.612;2023-05-07T02:45:47;13.00;99.90
50162;DHT22;36061;48.116;11.612;2023-05-07T02:48:15;12.90;99.90
50162;DHT22;36061;48.116;11.612;2023-05-07T02:50:44;12.90;99.90
50162;DHT22;36061;48.116;11.612;2023-05-07T02:53:13;12.90;99.90
50162;DHT22;36061;48.116;11.612;2023-05-07T02:55:40;12.90;99.90
50162;DHT22;36061;48.116;11.612;2023-05-07T02:58:07;12.80;99.90
50162;DHT22;36061;48.116;11.612;2023-05-07T03:00:37;12.80;99.90
50162;DHT22;36061;48.116;11.612;2023-05-07T03:03:16;12.80;99.90
50162;DHT22;36061;48.116;11.612;2023-05-07T03:05:45;12.70;99.90
50162;DHT22;36061;48.116;11.612;2023-05-07T03:08:12;12.70;99.90
50162;DHT22;36061;48.116;11.612;2023-05-07T03:10:40;12.70;99.90
50162;DHT22;36061;48.116;11.612;2023-05-07T03:13:07;12.70;99.90
50162;DHT22;36061;48.116;11.612;2023-05-07T03:15:34;12.70;99.90
50162;DHT22;36061;48.116;11.612;2023-05-07T03:18:02;12.70;99.90
50162;DHT22;36061;48.116;11.612;2023-05-07T03:20:29;12.60;99.90
50162;DHT22;36061;48.116;11.612;2023-05-07T03:22:58;12.60;99.90
50162;DHT22;36061;48.116;11.612;2023-05-07T03:25:27;12.60;99.90
50162;DHT22;36061;48.116;11.612;2023-05-07T03:27:55;12.60;99.90
50162;DHT22;36061;48.116;11.612;2023-05-07T03:30:27;12.60;99.90
50162;DHT22;36061;48.116;11.612;2023-05-07T03:32:54;12.60;99.90
50162;DHT22;36061;48.116;11.612;2023-05-07T03:35:21;12.60;99.90
50162;DHT22;36061;48.116;11.612;2023-05-07T03:37:49;12.50;99.90
50162;DHT22;36061;48.116;11.612;2023-05-07T03:40:18;12.60;99.90
50162;DHT22;36061;48.116;11.612;2023-05-07T03:42:50;12.50;99.90
50162;DHT22;36061;48.116;11.612;2023-05-07T03:45:20;12.50;99.90
50162;DHT22;36061;48.116;11.612;2023-05-07T03:47:55;12.50;99.90
50162;DHT22;36061;48.116;11.612;2023-05-07T03:50:23;12.50;99.90
50162;DHT22;36061;48.116;11.612;2023-05-07T03:52:50;12.50;99.90
50162;DHT22;36061;48.116;11.612;2023-05-07T03:55:21;12.50;99.90
50162;DHT22;36061;48.116;11.612;2023-05-07T03:57:53;12.50;99.90
50162;DHT22;36061;48.116;11.612;2023-05-07T04:00:22;12.50;99.90
50162;DHT22;36061;48.116;11.612;2023-05-07T04:02:49;12.50;99.90
50162;DHT22;36061;48.116;11.612;2023-05-07T04:05:24;12.50;99.90
50162;DHT22;36061;48.116;11.612;2023-05-07T04:07:58;12.50;99.90
50162;DHT22;36061;48.116;11.612;2023-05-07T04:10:33;12.50;99.90
50162;DHT22;36061;48.116;11.612;2023-05-07T04:13:04;12.50;99.90
50162;DHT22;36061;48.116;11.612;2023-05-07T04:15:32;12.40;99.90
50162;DHT22;36061;48.116;11.612;2023-05-07T04:17:59;12.40;99.90
50162;DHT22;36061;48.116;11.612;2023-05-07T04:20:27;12.40;99.90
50162;DHT22;36061;48.116;11.612;2023-05-07T04:23:01;12.40;99.90
50162;DHT22;36061;48.116;11.612;2023-05-07T04:25:29;12.40;99.90
50162;DHT22;36061;48.116;11.612;2023-05-07T04:28:06;12.40;99.90
50162;DHT22;36061;48.116;11.612;2023-05-07T04:30:34;12.40;99.90
50162;DHT22;36061;48.116;11.612;2023-05-07T04:33:03;12.40;99.90
50162;DHT22;36061;48.116;11.612;2023-05-07T04:35:31;12.50;99.90
50162;DHT22;36061;48.116;11.612;2023-05-07T04:37:59;12.50;99.90
50162;DHT22;36061;48.116;11.612;2023-05-07T04:40:28;12.50;99.90
50162;DHT22;36061;48.116;11.612;2023-05-07T04:42:56;12.60;99.90
50162;DHT22;36061;48.116;11.612;2023-05-07T04:45:25;12.60;99.90
50162;DHT22;36061;48.116;11.612;2023-05-07T04:47:54;12.60;99.90
50162;DHT22;36061;48.116;11.612;2023-05-07T04:50:21;12.60;99.90
50162;DHT22;36061;48.116;11.612;2023-05-07T04:52:52;12.60;99.90
50162;DHT22;36061;48.116;11.612;2023-05-07T04:55:20;12.70;99.90
50162;DHT22;36061;48.116;11.612;2023-05-07T04:57:48;12.70;99.90
50162;DHT22;36061;48.116;11.612;2023-05-07T05:00:16;12.70;99.90
50162;DHT22;36061;48.116;11.612;2023-05-07T05:02:49;12.80;99.90
50162;DHT22;36061;48.116;11.612;2023-05-07T05:05:19;12.80;99.90
50162;DHT22;36061;48.116;11.612;2023-05-07T05:07:49;12.80;99.90
50162;DHT22;36061;48.116;11.612;2023-05-07T05:10:17;12.80;99.90
50162;DHT22;36061;48.116;11.612;2023-05-07T05:12:45;12.80;99.90
50162;DHT22;36061;48.116;11.612;2023-05-07T05:15:12;12.80;99.90
50162;DHT22;36061;48.116;11.612;2023-05-07T05:17:39;12.80;99.90
50162;DHT22;36061;48.116;11.612;2023-05-07T05:20:09;12.90;99.90
50162;DHT22;36061;48.116;11.612;2023-05-07T05:22:38;12.90;99.90
50162;DHT22;36061;48.116;11.612;2023-05-07T05:25:06;13.00;99.90
50162;DHT22;36061;48.116;11.612;2023-05-07T05:27:34;13.10;99.90
50162;DHT22;36061;48.116;11.612;2023-05-07T05:30:02;13.30;99.90
50162;DHT22;36061;48.116;11.612;2023-05-07T05:32:30;13.40;99.90
50162;DHT22;36061;48.116;11.612;2023-05-07T05:34:57;13.60;99.90
50162;DHT22;36061;48.116;11.612;2023-05-07T05:37:26;13.80;99.90
50162;DHT22;36061;48.116;11.612;2023-05-07T05:39:54;14.00;99.90
50162;DHT22;36061;48.116;11.612;2023-05-07T05:42:21;14.10;99.90
50162;DHT22;36061;48.116;11.612;2023-05-07T05:44:49;14.30;99.90
50162;DHT22;36061;48.116;11.612;2023-05-07T05:47:16;14.50;99.90
50162;DHT22;36061;48.116;11.612;2023-05-07T05:49:44;14.70;99.90
50162;DHT22;36061;48.116;11.612;2023-05-07T05:52:14;15.00;99.90
50162;DHT22;36061;48.116;11.612;2023-05-07T05:54:44;15.30;99.90
50162;DHT22;36061;48.116;11.612;2023-05-07T05:57:11;15.70;99.90
50162;DHT22;36061;48.116;11.612;2023-05-07T05:59:39;16.20;99.90
50162;DHT22;36061;48.116;11.612;2023-05-07T06:02:06;16.70;99.90
50162;DHT22;36061;48.116;11.612;2023-05-07T06:04:34;17.30;99.90
50162;DHT22;36061;48.116;11.612;2023-05-07T06:07:02;18.00;99.90
50162;DHT22;36061;48.116;11.612;2023-05-07T06:09:29;18.70;99.90
50162;DHT22;36061;48.116;11.612;2023-05-07T06:11:58;19.10;99.90
50162;DHT22;36061;48.116;11.612;2023-05-07T06:14:25;19.10;99.90
50162;DHT22;36061;48.116;11.612;2023-05-07T06:16:54;18.70;99.90
50162;DHT22;36061;48.116;11.612;2023-05-07T06:19:22;18.40;99.90
50162;DHT22;36061;48.116;11.612;2023-05-07T06:21:52;18.10;99.90
50162;DHT22;36061;48.116;11.612;2023-05-07T06:24:19;17.90;99.90
50162;DHT22;36061;48.116;11.612;2023-05-07T06:26:46;17.70;99.90
50162;DHT22;36061;48.116;11.612;2023-05-07T06:29:15;17.70;99.90
50162;DHT22;36061;48.116;11.612;2023-05-07T06:31:43;17.80;99.90
50162;DHT22;36061;48.116;11.612;2023-05-07T06:34:11;18.00;99.90
50162;DHT22;36061;48.116;11.612;2023-05-07T06:36:40;18.50;99.90
50162;DHT22;36061;48.116;11.612;2023-05-07T06:39:28;19.20;99.90
50162;DHT22;36061;48.116;11.612;2023-05-07T06:41:55;19.90;99.90
50162;DHT22;36061;48.116;11.612;2023-05-07T06:44:28;20.70;99.90
50162;DHT22;36061;48.116;11.612;2023-05-07T06:47:06;21.20;99.90
50162;DHT22;36061;48.116;11.612;2023-05-07T06:49:34;21.40;99.90
50162;DHT22;36061;48.116;11.612;2023-05-07T06:52:02;21.30;99.90
50162;DHT22;36061;48.116;11.612;2023-05-07T06:54:30;21.00;99.90
50162;DHT22;36061;48.116;11.612;2023-05-07T06:56:58;20.70;99.90
50162;DHT22;36061;48.116;11.612;2023-05-07T06:59:28;20.50;99.90
50162;DHT22;36061;48.116;11.612;2023-05-07T07:01:55;20.40;99.90
50162;DHT22;36061;48.116;11.612;2023-05-07T07:04:23;20.50;99.90
50162;DHT22;36061;48.116;11.612;2023-05-07T07:06:58;20.60;99.90
50162;DHT22;36061;48.116;11.612;2023-05-07T07:09:26;20.80;99.90
50162;DHT22;36061;48.116;11.612;2023-05-07T07:11:54;20.90;99.90
50162;DHT22;36061;48.116;11.612;2023-05-07T07:14:21;20.90;99.90
50162;DHT22;36061;48.116;11.612;2023-05-07T07:16:52;20.90;99.90
50162;DHT22;36061;48.116;11.612;2023-05-07T07:19:20;20.90;99.90
50162;DHT22;36061;48.116;11.612;2023-05-07T07:21:50;20.80;99.90
50162;DHT22;36061;48.116;11.612;2023-05-07T07:24:17;20.70;99.90
50162;DHT22;36061;48.116;11.612;2023-05-07T07:26:49;20.60;99.90
50162;DHT22;36061;48.116;11.612;2023-05-07T07:29:17;20.40;99.90
50162;DHT22;36061;48.116;11.612;2023-05-07T07:31:47;20.20;99.90
50162;DHT22;36061;48.116;11.612;2023-05-07T07:34:16;20.10;99.90
50162;DHT22;36061;48.116;11.612;2023-05-07T07:36:43;19.90;99.90
50162;DHT22;36061;48.116;11.612;2023-05-07T07:39:10;19.80;99.90
50162;DHT22;36061;48.116;11.612;2023-05-07T07:41:37;19.70;99.90
50162;DHT22;36061;48.116;11.612;2023-05-07T07:44:05;19.70;99.90
50162;DHT22;36061;48.116;11.612;2023-05-07T07:46:35;19.60;99.90
50162;DHT22;36061;48.116;11.612;2023-05-07T07:49:03;19.60;99.90
50162;DHT22;36061;48.116;11.612;2023-05-07T07:51:32;19.50;99.90
50162;DHT22;36061;48.116;11.612;2023-05-07T07:54:00;19.50;99.90
50162;DHT22;36061;48.116;11.612;2023-05-07T07:56:31;19.50;99.90
50162;DHT22;36061;48.116;11.612;2023-05-07T07:58:59;19.50;99.90
50162;DHT22;36061;48.116;11.612;2023-05-07T08:01:27;19.60;99.90
50162;DHT22;36061;48.116;11.612;2023-05-07T08:03:56;19.60;99.90
50162;DHT22;36061;48.116;11.612;2023-05-07T08:06:25;19.70;99.90
50162;DHT22;36061;48.116;11.612;2023-05-07T08:08:54;19.70;99.90
50162;DHT22;36061;48.116;11.612;2023-05-07T08:11:22;19.70;99.90
50162;DHT22;36061;48.116;11.612;2023-05-07T08:13:51;19.70;99.90
50162;DHT22;36061;48.116;11.612;2023-05-07T08:16:18;19.60;99.90
50162;DHT22;36061;48.116;11.612;2023-05-07T08:18:46;19.60;99.90
50162;DHT22;36061;48.116;11.612;2023-05-07T08:21:13;19.60;99.90
50162;DHT22;36061;48.116;11.612;2023-05-07T08:23:41;19.60;99.90
50162;DHT22;36061;48.116;11.612;2023-05-07T08:26:09;19.70;99.90
50162;DHT22;36061;48.116;11.612;2023-05-07T08:28:37;19.80;99.90
50162;DHT22;36061;48.116;11.612;2023-05-07T08:31:05;19.80;99.90
50162;DHT22;36061;48.116;11.612;2023-05-07T08:33:36;19.90;99.90
50162;DHT22;36061;48.116;11.612;2023-05-07T08:36:04;19.90;99.90
50162;DHT22;36061;48.116;11.612;2023-05-07T08:38:32;19.90;99.90
50162;DHT22;36061;48.116;11.612;2023-05-07T08:40:59;19.90;99.90
50162;DHT22;36061;48.116;11.612;2023-05-07T08:43:31;19.90;99.90
50162;DHT22;36061;48.116;11.612;2023-05-07T08:46:01;20.00;99.90
50162;DHT22;36061;48.116;11.612;2023-05-07T08:48:33;20.10;99.90
50162;DHT22;36061;48.116;11.612;2023-05-07T08:51:08;20.10;99.90
50162;DHT22;36061;48.116;11.612;2023-05-07T08:53:35;20.10;99.90
50162;DHT22;36061;48.116;11.612;2023-05-07T08:56:05;20.30;99.90
50162;DHT22;36061;48.116;11.612;2023-05-07T08:58:34;20.30;99.90
50162;DHT22;36061;48.116;11.612;2023-05-07T09:01:05;20.40;99.90
50162;DHT22;36061;48.116;11.612;2023-05-07T09:03:38;20.40;99.90
50162;DHT22;36061;48.116;11.612;2023-05-07T09:06:05;20.40;99.90
50162;DHT22;36061;48.116;11.612;2023-05-07T09:08:33;20.40;99.90
50162;DHT22;36061;48.116;11.612;2023-05-07T09:11:03;20.40;99.90
50162;DHT22;36061;48.116;11.612;2023-05-07T09:13:30;20.50;99.90
50162;DHT22;36061;48.116;11.612;2023-05-07T09:16:10;20.60;99.90
50162;DHT22;36061;48.116;11.612;2023-05-07T09:18:41;20.70;99.90
50162;DHT22;36061;48.116;11.612;2023-05-07T09:21:10;20.80;99.90
50162;DHT22;36061;48.116;11.612;2023-05-07T09:23:38;20.90;99.90
50162;DHT22;36061;48.116;11.612;2023-05-07T09:26:06;20.90;99.90
50162;DHT22;36061;48.116;11.612;2023-05-07T09:28:39;20.90;99.90
50162;DHT22;36061;48.116;11.612;2023-05-07T09:31:11;20.90;99.90
50162;DHT22;36061;48.116;11.612;2023-05-07T09:33:39;20.90;99.90
50162;DHT22;36061;48.116;11.612;2023-05-07T09:36:08;20.90;99.90
50162;DHT22;36061;48.116;11.612;2023-05-07T09:38:38;20.80;99.90
50162;DHT22;36061;48.116;11.612;2023-05-07T09:41:07;20.80;99.90
50162;DHT22;36061;48.116;11.612;2023-05-07T09:43:41;20.80;99.90
50162;DHT22;36061;48.116;11.612;2023-05-07T09:46:14;20.70;99.90
50162;DHT22;36061;48.116;11.612;2023-05-07T09:48:48;20.70;99.90
50162;DHT22;36061;48.116;11.612;2023-05-07T09:51:22;20.80;99.90
50162;DHT22;36061;48.116;11.612;2023-05-07T09:53:53;20.80;99.90
50162;DHT22;36061;48.116;11.612;2023-05-07T09:56:23;20.90;99.90
50162;DHT22;36061;48.116;11.612;2023-05-07T09:58:52;20.90;99.90
50162;DHT22;36061;48.116;11.612;2023-05-07T10:01:23;21.00;99.90
50162;DHT22;36061;48.116;11.612;2023-05-07T10:03:53;21.00;99.90
50162;DHT22;36061;48.116;11.612;2023-05-07T10:06:21;21.10;99.90
50162;DHT22;36061;48.116;11.612;2023-05-07T10:08:49;21.10;99.90
50162;DHT22;36061;48.116;11.612;2023-05-07T10:11:17;21.20;99.90
50162;DHT22;36061;48.116;11.612;2023-05-07T10:13:46;21.20;99.90
50162;DHT22;36061;48.116;11.612;2023-05-07T10:16:15;21.30;99.90
50162;DHT22;36061;48.116;11.612;2023-05-07T10:18:47;21.30;99.90
50162;DHT22;36061;48.116;11.612;2023-05-07T10:21:21;21.30;99.90
50162;DHT22;36061;48.116;11.612;2023-05-07T10:23:57;21.30;99.90
50162;DHT22;36061;48.116;11.612;2023-05-07T10:26:27;21.30;99.90
50162;DHT22;36061;48.116;11.612;2023-05-07T10:28:59;21.20;99.90
50162;DHT22;36061;48.116;11.612;2023-05-07T10:31:44;21.30;99.90
50162;DHT22;36061;48.116;11.612;2023-05-07T10:34:19;21.30;99.90
50162;DHT22;36061;48.116;11.612;2023-05-07T10:36:48;21.30;99.90
50162;DHT22;36061;48.116;11.612;2023-05-07T10:39:16;21.30;99.90
50162;DHT22;36061;48.116;11.612;2023-05-07T10:41:44;21.30;99.90
50162;DHT22;36061;48.116;11.612;2023-05-07T10:44:25;21.30;99.90
50162;DHT22;36061;48.116;11.612;2023-05-07T10:47:04;21.20;99.90
50162;DHT22;36061;48.116;11.612;2023-05-07T10:49:37;21.30;99.90
50162;DHT22;36061;48.116;11.612;2023-05-07T10:52:15;21.30;99.90
50162;DHT22;36061;48.116;11.612;2023-05-07T10:55:20;21.40;99.90
50162;DHT22;36061;48.116;11.612;2023-05-07T10:58:22;21.30;99.90
50162;DHT22;36061;48.116;11.612;2023-05-07T11:00:57;21.30;99.90
50162;DHT22;36061;48.116;11.612;2023-05-07T11:03:30;21.40;99.90
50162;DHT22;36061;48.116;11.612;2023-05-07T11:06:14;21.40;99.90
50162;DHT22;36061;48.116;11.612;2023-05-07T11:08:53;21.40;99.90
50162;DHT22;36061;48.116;11.612;2023-05-07T11:11:44;21.40;99.90
50162;DHT22;36061;48.116;11.612;2023-05-07T11:14:44;21.40;99.90
50162;DHT22;36061;48.116;11.612;2023-05-07T11:17:32;21.50;99.90
50162;DHT22;36061;48.116;11.612;2023-05-07T11:20:05;21.40;99.90
50162;DHT22;36061;48.116;11.612;2023-05-07T11:22:43;21.40;99.90
50162;DHT22;36061;48.116;11.612;2023-05-07T11:25:22;21.40;99.90
50162;DHT22;36061;48.116;11.612;2023-05-07T11:28:05;21.40;99.90
50162;DHT22;36061;48.116;11.612;2023-05-07T11:30:33;21.50;99.90
50162;DHT22;36061;48.116;11.612;2023-05-07T11:33:00;21.50;99.90
50162;DHT22;36061;48.116;11.612;2023-05-07T11:35:29;21.50;99.90
50162;DHT22;36061;48.116;11.612;2023-05-07T11:37:59;21.50;99.90
50162;DHT22;36061;48.116;11.612;2023-05-07T11:40:29;21.60;99.90
50162;DHT22;36061;48.116;11.612;2023-05-07T11:42:56;21.60;99.90
50162;DHT22;36061;48.116;11.612;2023-05-07T11:45:25;21.60;99.90
50162;DHT22;36061;48.116;11.612;2023-05-07T11:47:52;21.50;99.90
50162;DHT22;36061;48.116;11.612;2023-05-07T11:50:19;21.50;99.90
50162;DHT22;36061;48.116;11.612;2023-05-07T11:52:51;21.60;99.90
50162;DHT22;36061;48.116;11.612;2023-05-07T11:55:20;21.50;99.90
50162;DHT22;36061;48.116;11.612;2023-05-07T11:57:48;21.50;99.90
50162;DHT22;36061;48.116;11.612;2023-05-07T12:00:16;21.40;99.90
50162;DHT22;36061;48.116;11.612;2023-05-07T12:02:45;21.40;99.90
50162;DHT22;36061;48.116;11.612;2023-05-07T12:05:12;21.40;99.90
50162;DHT22;36061;48.116;11.612;2023-05-07T12:07:39;21.50;99.90
50162;DHT22;36061;48.116;11.612;2023-05-07T12:10:07;21.50;99.90
50162;DHT22;36061;48.116;11.612;2023-05-07T12:12:40;21.60;99.90
50162;DHT22;36061;48.116;11.612;2023-05-07T12:15:08;21.70;99.90
50162;DHT22;36061;48.116;11.612;2023-05-07T12:17:36;21.80;99.90
50162;DHT22;36061;48.116;11.612;2023-05-07T12:20:04;21.90;99.90
50162;DHT22;36061;48.116;11.612;2023-05-07T12:22:32;21.90;99.90
50162;DHT22;36061;48.116;11.612;2023-05-07T12:24:59;22.00;99.90
50162;DHT22;36061;48.116;11.612;2023-05-07T12:27:28;22.10;99.90
50162;DHT22;36061;48.116;11.612;2023-05-07T12:29:57;22.10;99.90
50162;DHT22;36061;48.116;11.612;2023-05-07T12:32:25;22.10;99.90
50162;DHT22;36061;48.116;11.612;2023-05-07T12:34:52;22.00;99.90
50162;DHT22;36061;48.116;11.612;2023-05-07T12:37:24;22.00;99.90
50162;DHT22;36061;48.116;11.612;2023-05-07T12:40:04;22.00;99.90
50162;DHT22;36061;48.116;11.612;2023-05-07T12:42:35;21.90;99.90
50162;DHT22;36061;48.116;11.612;2023-05-07T12:45:09;22.00;99.90
50162;DHT22;36061;48.116;11.612;2023-05-07T12:47:36;21.90;99.90
50162;DHT22;36061;48.116;11.612;2023-05-07T12:50:06;22.00;99.90
50162;DHT22;36061;48.116;11.612;2023-05-07T12:52:34;22.00;99.90
50162;DHT22;36061;48.116;11.612;2023-05-07T12:55:05;22.00;99.90
50162;DHT22;36061;48.116;11.612;2023-05-07T12:57:37;22.00;99.90
50162;DHT22;36061;48.116;11.612;2023-05-07T13:00:06;22.10;99.90
50162;DHT22;36061;48.116;11.612;2023-05-07T13:02:38;22.00;99.90
50162;DHT22;36061;48.116;11.612;2023-05-07T13:05:06;22.00;99.90
50162;DHT22;36061;48.116;11.612;2023-05-07T13:07:33;22.00;99.90
50162;DHT22;36061;48.116;11.612;2023-05-07T13:10:00;22.00;99.90
50162;DHT22;36061;48.116;11.612;2023-05-07T13:12:28;21.90;99.90
50162;DHT22;36061;48.116;11.612;2023-05-07T13:14:55;21.90;99.90
50162;DHT22;36061;48.116;11.612;2023-05-07T13:17:22;21.90;99.90
50162;DHT22;36061;48.116;11.612;2023-05-07T13:19:51;22.00;99.90
50162;DHT22;36061;48.116;11.612;2023-05-07T13:22:18;22.10;99.90
50162;DHT22;36061;48.116;11.612;2023-05-07T13:24:45;22.00;99.90
50162;DHT22;36061;48.116;11.612;2023-05-07T13:27:12;22.00;99.90
50162;DHT22;36061;48.116;11.612;2023-05-07T13:29:40;22.00;99.90
50162;DHT22;36061;48.116;11.612;2023-05-07T13:32:07;22.00;99.90
50162;DHT22;36061;48.116;11.612;2023-05-07T13:34:34;22.10;99.90
50162;DHT22;36061;48.116;11.612;2023-05-07T13:37:04;22.20;99.90
50162;DHT22;36061;48.116;11.612;2023-05-07T13:39:31;22.30;99.90
50162;DHT22;36061;48.116;11.612;2023-05-07T13:41:58;22.30;99.90
50162;DHT22;36061;48.116;11.612;2023-05-07T13:44:26;22.40;99.90
50162;DHT22;36061;48.116;11.612;2023-05-07T13:46:53;22.40;99.90
50162;DHT22;36061;48.116;11.612;2023-05-07T13:49:20;22.30;99.90
50162;DHT22;36061;48.116;11.612;2023-05-07T13:51:47;22.30;99.90
50162;DHT22;36061;48.116;11.612;2023-05-07T13:54:16;22.20;99.90
50162;DHT22;36061;48.116;11.612;2023-05-07T13:56:43;22.20;99.90
50162;DHT22;36061;48.116;11.612;2023-05-07T13:59:10;22.20;99.90
50162;DHT22;36061;48.116;11.612;2023-05-07T14:01:40;22.30;99.90
50162;DHT22;36061;48.116;11.612;2023-05-07T14:04:07;22.20;99.90
50162;DHT22;36061;48.116;11.612;2023-05-07T14:06:34;22.20;99.90
50162;DHT22;36061;48.116;11.612;2023-05-07T14:09:01;22.20;99.90
50162;DHT22;36061;48.116;11.612;2023-05-07T14:11:31;22.30;99.90
50162;DHT22;36061;48.116;11.612;2023-05-07T14:13:58;22.30;99.90
50162;DHT22;36061;48.116;11.612;2023-05-07T14:16:25;22.30;99.90
50162;DHT22;36061;48.116;11.612;2023-05-07T14:18:53;22.30;99.90
50162;DHT22;36061;48.116;11.612;2023-05-07T14:21:20;22.30;99.90
50162;DHT22;36061;48.116;11.612;2023-05-07T14:23:47;22.20;99.90
50162;DHT22;36061;48.116;11.612;2023-05-07T14:26:14;22.20;99.90
50162;DHT22;36061;48.116;11.612;2023-05-07T14:28:43;22.20;99.90
50162;DHT22;36061;48.116;11.612;2023-05-07T14:31:12;22.20;99.90
50162;DHT22;36061;48.116;11.612;2023-05-07T14:33:39;22.10;99.90
50162;DHT22;36061;48.116;11.612;2023-05-07T14:36:06;22.10;99.90
50162;DHT22;36061;48.116;11.612;2023-05-07T14:38:33;22.10;99.90
50162;DHT22;36061;48.116;11.612;2023-05-07T14:41:01;22.00;99.90
50162;DHT22;36061;48.116;11.612;2023-05-07T14:43:28;21.90;99.90
50162;DHT22;36061;48.116;11.612;2023-05-07T14:45:56;21.90;99.90
50162;DHT22;36061;48.116;11.612;2023-05-07T14:48:23;21.90;99.90
50162;DHT22;36061;48.116;11.612;2023-05-07T14:50:51;21.90;99.90
50162;DHT22;36061;48.116;11.612;2023-05-07T14:53:18;21.80;99.90
50162;DHT22;36061;48.116;11.612;2023-05-07T14:55:46;21.80;99.90
50162;DHT22;36061;48.116;11.612;2023-05-07T14:58:14;21.80;99.90
50162;DHT22;36061;48.116;11.612;2023-05-07T15:00:41;21.80;99.90
50162;DHT22;36061;48.116;11.612;2023-05-07T15:03:10;21.70;99.90
50162;DHT22;36061;48.116;11.612;2023-05-07T15:05:41;21.70;99.90
50162;DHT22;36061;48.116;11.612;2023-05-07T15:08:09;21.60;99.90
50162;DHT22;36061;48.116;11.612;2023-05-07T15:10:36;21.60;99.90
50162;DHT22;36061;48.116;11.612;2023-05-07T15:13:07;21.50;99.90
50162;DHT22;36061;48.116;11.612;2023-05-07T15:15:34;21.50;99.90
50162;DHT22;36061;48.116;11.612;2023-05-07T15:18:02;21.50;99.90
50162;DHT22;36061;48.116;11.612;2023-05-07T15:20:31;21.40;99.90
50162;DHT22;36061;48.116;11.612;2023-05-07T15:22:58;21.30;99.90
50162;DHT22;36061;48.116;11.612;2023-05-07T15:25:25;21.30;99.90
50162;DHT22;36061;48.116;11.612;2023-05-07T15:27:52;21.30;99.90